sensor_id;sensor_type;location;lat;lon;timestamp;pressure;altitude;pressure_sealevel;temperature;humidity
20860;BME280;10590;48.154;11.514;2022-11-20T00:04:59;95089.06;;;4.99;100.00
20860;BME280;10590;48.154;11.514;2022-11-20T00:10:01;95084.44;;;4.90;100.00
20860;BME280;10590;48.154;11.514;2022-11-20T00:15:03;95086.50;;;5.07;100.00
20860;BME280;10590;48.154;11.514;2022-11-20T00:20:07;95096.88;;;5.09;100.00
20860;BME280;10590;48.154;11.514;2022-11-20T00:25:09;95095.59;;;5.06;100.00
20860;BME280;10590;48.154;11.514;2022-11-20T00:30:11;95093.94;;;4.97;100.00
20860;BME280;10590;48.154;11.514;2022-11-20T00:35:14;95091.97;;;4.75;100.00
20860;BME280;10590;48.154;11.514;2022-11-20T00:40:16;95092.75;;;4.89;100.00
20860;BME280;10590;48.154;11.514;2022-11-20T00:45:18;95094.22;;;4.95;100.00
20860;BME280;10590;48.154;11.514;2022-11-20T00:50:21;95106.31;;;4.92;100.00
20860;BME280;10590;48.154;11.514;2022-11-20T00:55:22;95112.63;;;4.83;100.00
20860;BME280;10590;48.154;11.514;2022-11-20T01:00:24;95108.91;;;4.84;100.00
20860;BME280;10590;48.154;11.514;2022-11-20T01:05:27;95116.19;;;4.78;100.00
20860;BME280;10590;48.154;11.514;2022-11-20T01:10:29;95126.28;;;4.81;100.00
20860;BME280;10590;48.154;11.514;2022-11-20T01:15:33;95123.13;;;4.79;100.00
20860;BME280;10590;48.154;11.514;2022-11-20T01:20:38;95119.75;;;4.74;100.00
20860;BME280;10590;48.154;11.514;2022-11-20T01:25:39;95124.91;;;4.84;100.00
20860;BME280;10590;48.154;11.514;2022-11-20T01:30:41;95126.38;;;4.90;100.00
20860;BME280;10590;48.154;11.514;2022-11-20T01:35:44;95130.53;;;4.96;100.00
20860;BME280;10590;48.154;11.514;2022-11-20T01:40:53;95129.75;;;4.96;100.00
20860;BME280;10590;48.154;11.514;2022-11-20T01:46:04;95133.78;;;4.93;100.00
20860;BME280;10590;48.154;11.514;2022-11-20T01:51:12;95134.56;;;4.93;100.00
20860;BME280;10590;48.154;11.514;2022-11-20T01:56:14;95132.91;;;4.84;100.00
20860;BME280;10590;48.154;11.514;2022-11-20T02:01:18;95128.66;;;4.83;100.00
20860;BME280;10590;48.154;11.514;2022-11-20T02:06:25;95129.66;;;4.73;100.00
20860;BME280;10590;48.154;11.514;2022-11-20T02:11:27;95134.88;;;4.92;100.00
20860;BME280;10590;48.154;11.514;2022-11-20T02:16:31;95133.28;;;4.91;100.00
20860;BME280;10590;48.154;11.514;2022-11-20T02:21:40;95130.03;;;4.66;100.00
20860;BME280;10590;48.154;11.514;2022-11-20T02:26:55;95139.03;;;4.71;100.00
20860;BME280;10590;48.154;11.514;2022-11-20T02:31:59;95129.75;;;4.82;100.00
20860;BME280;10590;48.154;11.514;2022-11-20T02:37:02;95133.63;;;4.76;100.00
20860;BME280;10590;48.154;11.514;2022-11-20T02:42:05;95136.09;;;4.72;100.00
20860;BME280;10590;48.154;11.514;2022-11-20T02:47:07;95131.53;;;4.73;100.00
20860;BME280;10590;48.154;11.514;2022-11-20T02:52:09;95127.97;;;4.77;100.00
20860;BME280;10590;48.154;11.514;2022-11-20T02:57:12;95136.56;;;4.88;100.00
20860;BME280;10590;48.154;11.514;2022-11-20T03:02:13;95130.84;;;4.81;100.00
20860;BME280;10590;48.154;11.514;2022-11-20T03:07:15;95127.88;;;4.82;100.00
20860;BME280;10590;48.154;11.514;2022-11-20T03:12:18;95121.63;;;4.87;100.00
20860;BME280;10590;48.154;11.514;2022-11-20T03:17:20;95125.50;;;4.81;100.00
20860;BME280;10590;48.154;11.514;2022-11-20T03:22:21;95129.16;;;4.85;100.00
20860;BME280;10590;48.154;11.514;2022-11-20T03:27:24;95130.44;;;4.87;100.00
20860;BME280;10590;48.154;11.514;2022-11-20T03:32:26;95123.63;;;4.81;100.00
20860;BME280;10590;48.154;11.514;2022-11-20T03:37:28;95128.84;;;4.86;100.00
20860;BME280;10590;48.154;11.514;2022-11-20T03:42:31;95118.19;;;4.73;100.00
20860;BME280;10590;48.154;11.514;2022-11-20T03:47:48;95119.38;;;4.80;100.00
20860;BME280;10590;48.154;11.514;2022-11-20T03:52:50;95127.00;;;4.73;100.00
20860;BME280;10590;48.154;11.514;2022-11-20T03:57:53;95131.53;;;4.73;100.00
20860;BME280;10590;48.154;11.514;2022-11-20T04:02:57;95136.78;;;4.64;100.00
20860;BME280;10590;48.154;11.514;2022-11-20T04:07:59;95138.84;;;4.81;100.00
20860;BME280;10590;48.154;11.514;2022-11-20T04:13:03;95129.56;;;4.64;100.00
20860;BME280;10590;48.154;11.514;2022-11-20T04:18:04;95128.16;;;4.67;100.00
20860;BME280;10590;48.154;11.514;2022-11-20T04:23:06;95123.41;;;4.78;100.00
20860;BME280;10590;48.154;11.514;2022-11-20T04:28:09;95126.47;;;4.71;100.00
20860;BME280;10590;48.154;11.514;2022-11-20T04:33:11;95129.97;;;4.72;100.00
20860;BME280;10590;48.154;11.514;2022-11-20T04:38:13;95124.91;;;4.70;100.00
20860;BME280;10590;48.154;11.514;2022-11-20T04:43:16;95125.97;;;4.83;100.00
20860;BME280;10590;48.154;11.514;2022-11-20T04:48:18;95125.69;;;4.84;100.00
20860;BME280;10590;48.154;11.514;2022-11-20T04:53:20;95133.22;;;4.68;100.00
20860;BME280;10590;48.154;11.514;2022-11-20T04:58:24;95133.03;;;4.65;100.00
20860;BME280;10590;48.154;11.514;2022-11-20T05:03:25;95130.56;;;4.68;100.00
20860;BME280;10590;48.154;11.514;2022-11-20T05:08:27;95126.28;;;4.81;100.00
20860;BME280;10590;48.154;11.514;2022-11-20T05:13:30;95132.22;;;4.64;100.00
20860;BME280;10590;48.154;11.514;2022-11-20T05:18:33;95133.13;;;4.60;100.00
20860;BME280;10590;48.154;11.514;2022-11-20T05:23:35;95140.03;;;4.75;100.00
20860;BME280;10590;48.154;11.514;2022-11-20T05:28:38;95143.97;;;4.63;100.00
20860;BME280;10590;48.154;11.514;2022-11-20T05:33:40;95143.09;;;4.54;100.00
20860;BME280;10590;48.154;11.514;2022-11-20T05:38:43;95128.38;;;4.57;100.00
20860;BME280;10590;48.154;11.514;2022-11-20T05:43:48;95139.84;;;4.57;100.00
20860;BME280;10590;48.154;11.514;2022-11-20T05:48:49;95139.03;;;4.57;100.00
20860;BME280;10590;48.154;11.514;2022-11-20T05:53:51;95143.19;;;4.63;100.00
20860;BME280;10590;48.154;11.514;2022-11-20T05:58:54;95144.88;;;4.45;100.00
20860;BME280;10590;48.154;11.514;2022-11-20T06:03:57;95142.31;;;4.54;100.00
20860;BME280;10590;48.154;11.514;2022-11-20T06:08:59;95147.06;;;4.57;100.00
20860;BME280;10590;48.154;11.514;2022-11-20T06:14:02;95143.09;;;4.54;100.00
20860;BME280;10590;48.154;11.514;2022-11-20T06:19:04;95140.81;;;4.34;100.00
20860;BME280;10590;48.154;11.514;2022-11-20T06:24:06;95142.75;;;4.28;100.00
20860;BME280;10590;48.154;11.514;2022-11-20T06:29:09;95143.03;;;4.13;100.00
20860;BME280;10590;48.154;11.514;2022-11-20T06:34:11;95147.50;;;4.17;100.00
20860;BME280;10590;48.154;11.514;2022-11-20T06:39:13;95149.06;;;4.18;100.00
20860;BME280;10590;48.154;11.514;2022-11-20T06:44:16;95158.84;;;4.23;100.00
20860;BME280;10590;48.154;11.514;2022-11-20T06:49:17;95159.56;;;4.29;99.29
20860;BME280;10590;48.154;11.514;2022-11-20T06:54:21;95163.13;;;4.38;98.71
20860;BME280;10590;48.154;11.514;2022-11-20T06:59:24;95167.28;;;4.44;97.60
20860;BME280;10590;48.154;11.514;2022-11-20T07:04:26;95169.78;;;4.54;97.60
20860;BME280;10590;48.154;11.514;2022-11-20T07:09:35;95176.69;;;4.55;95.26
20860;BME280;10590;48.154;11.514;2022-11-20T07:14:38;95181.25;;;4.68;94.88
20860;BME280;10590;48.154;11.514;2022-11-20T07:19:40;95181.25;;;4.68;95.95
20860;BME280;10590;48.154;11.514;2022-11-20T07:24:43;95181.34;;;4.63;94.60
20860;BME280;10590;48.154;11.514;2022-11-20T07:29:46;95191.94;;;4.68;94.26
20860;BME280;10590;48.154;11.514;2022-11-20T07:34:47;95192.34;;;4.76;95.45
20860;BME280;10590;48.154;11.514;2022-11-20T07:39:49;95187.19;;;4.65;95.71
20860;BME280;10590;48.154;11.514;2022-11-20T07:44:52;95188.88;;;4.89;93.75
20860;BME280;10590;48.154;11.514;2022-11-20T07:49:54;95187.09;;;4.84;94.62
20860;BME280;10590;48.154;11.514;2022-11-20T07:54:55;95191.25;;;5.04;95.35
20860;BME280;10590;48.154;11.514;2022-11-20T07:59:59;95192.72;;;5.24;96.01
20860;BME280;10590;48.154;11.514;2022-11-20T08:05:01;95188.69;;;5.49;92.66
20860;BME280;10590;48.154;11.514;2022-11-20T08:10:03;95200.03;;;5.18;93.76
20860;BME280;10590;48.154;11.514;2022-11-20T08:15:07;95208.53;;;5.07;94.83
20860;BME280;10590;48.154;11.514;2022-11-20T08:20:09;95204.88;;;5.16;95.17
20860;BME280;10590;48.154;11.514;2022-11-20T08:25:11;95208.22;;;5.22;94.92
20860;BME280;10590;48.154;11.514;2022-11-20T08:30:15;95203.97;;;5.35;92.50
20860;BME280;10590;48.154;11.514;2022-11-20T08:35:18;95199.78;;;5.56;91.03
20860;BME280;10590;48.154;11.514;2022-11-20T08:40:20;95205.88;;;5.71;90.13
20860;BME280;10590;48.154;11.514;2022-11-20T08:45:23;95195.63;;;5.86;88.06
20860;BME280;10590;48.154;11.514;2022-11-20T08:50:24;95201.84;;;5.59;87.60
20860;BME280;10590;48.154;11.514;2022-11-20T08:55:26;95196.91;;;5.89;87.30
20860;BME280;10590;48.154;11.514;2022-11-20T09:00:29;95202.19;;;5.94;86.22
20860;BME280;10590;48.154;11.514;2022-11-20T09:05:31;95196.56;;;5.68;85.93
20860;BME280;10590;48.154;11.514;2022-11-20T09:10:32;95191.47;;;5.94;85.44
20860;BME280;10590;48.154;11.514;2022-11-20T09:15:36;95198.22;;;6.14;83.16
20860;BME280;10590;48.154;11.514;2022-11-20T09:20:37;95194.31;;;6.20;81.83
20860;BME280;10590;48.154;11.514;2022-11-20T09:25:39;95189.31;;;6.50;80.43
20860;BME280;10590;48.154;11.514;2022-11-20T09:30:42;95188.41;;;6.54;79.81
20860;BME280;10590;48.154;11.514;2022-11-20T09:35:44;95174.84;;;6.51;80.36
20860;BME280;10590;48.154;11.514;2022-11-20T09:40:51;95183.19;;;6.27;78.67
20860;BME280;10590;48.154;11.514;2022-11-20T09:46:05;95182.97;;;6.14;80.07
20860;BME280;10590;48.154;11.514;2022-11-20T09:51:16;95170.63;;;6.58;79.26
20860;BME280;10590;48.154;11.514;2022-11-20T09:56:23;95157.41;;;7.02;77.03
20860;BME280;10590;48.154;11.514;2022-11-20T10:01:31;95159.00;;;7.11;73.37
20860;BME280;10590;48.154;11.514;2022-11-20T10:06:39;95153.47;;;8.55;70.08
20860;BME280;10590;48.154;11.514;2022-11-20T10:11:49;95154.47;;;8.42;69.17
20860;BME280;10590;48.154;11.514;2022-11-20T10:17:03;95157.50;;;7.54;71.99
20860;BME280;10590;48.154;11.514;2022-11-20T10:22:19;95160.78;;;7.33;72.10
20860;BME280;10590;48.154;11.514;2022-11-20T10:28:01;95155.06;;;7.18;72.77
20860;BME280;10590;48.154;11.514;2022-11-20T10:33:13;95156.16;;;7.08;73.10
20860;BME280;10590;48.154;11.514;2022-11-20T10:38:21;95161.53;;;7.08;74.43
20860;BME280;10590;48.154;11.514;2022-11-20T10:43:28;95161.88;;;7.24;75.37
20860;BME280;10590;48.154;11.514;2022-11-20T10:48:36;95156.19;;;7.25;73.83
20860;BME280;10590;48.154;11.514;2022-11-20T10:53:46;95161.22;;;7.27;73.94
20860;BME280;10590;48.154;11.514;2022-11-20T10:58:59;95149.72;;;7.26;72.76
20860;BME280;10590;48.154;11.514;2022-11-20T11:04:28;95164.25;;;7.43;72.18
20860;BME280;10590;48.154;11.514;2022-11-20T11:09:34;95147.72;;;7.41;71.32
20860;BME280;10590;48.154;11.514;2022-11-20T11:14:45;95141.66;;;7.09;73.92
20860;BME280;10590;48.154;11.514;2022-11-20T11:20:14;95135.69;;;7.21;74.02
20860;BME280;10590;48.154;11.514;2022-11-20T11:25:22;95133.59;;;7.00;74.62
20860;BME280;10590;48.154;11.514;2022-11-20T11:30:26;95123.75;;;7.44;74.15
20860;BME280;10590;48.154;11.514;2022-11-20T11:35:32;95126.59;;;7.91;72.63
20860;BME280;10590;48.154;11.514;2022-11-20T11:40:35;95113.00;;;7.27;73.02
20860;BME280;10590;48.154;11.514;2022-11-20T11:45:39;95122.63;;;7.28;73.08
20860;BME280;10590;48.154;11.514;2022-11-20T11:50:48;95115.22;;;7.42;72.87
20860;BME280;10590;48.154;11.514;2022-11-20T11:55:54;95119.09;;;7.01;73.70
20860;BME280;10590;48.154;11.514;2022-11-20T12:01:03;95122.25;;;7.03;72.53
20860;BME280;10590;48.154;11.514;2022-11-20T12:06:12;95144.13;;;6.88;76.03
20860;BME280;10590;48.154;11.514;2022-11-20T12:11:20;95141.81;;;5.65;93.47
20860;BME280;10590;48.154;11.514;2022-11-20T12:16:25;95138.94;;;5.76;94.93
20860;BME280;10590;48.154;11.514;2022-11-20T12:21:38;95132.00;;;5.75;93.12
20860;BME280;10590;48.154;11.514;2022-11-20T12:26:55;95126.22;;;5.81;91.66
20860;BME280;10590;48.154;11.514;2022-11-20T12:38:06;95130.63;;;6.00;88.93
20860;BME280;10590;48.154;11.514;2022-11-20T12:43:19;95119.88;;;6.13;89.28
20860;BME280;10590;48.154;11.514;2022-11-20T12:48:46;95127.19;;;6.30;88.08
20860;BME280;10590;48.154;11.514;2022-11-20T12:59:38;95123.56;;;6.04;89.66
20860;BME280;10590;48.154;11.514;2022-11-20T13:05:00;95117.50;;;5.89;91.64
20860;BME280;10590;48.154;11.514;2022-11-20T13:10:14;95126.84;;;5.78;96.61
20860;BME280;10590;48.154;11.514;2022-11-20T13:15:26;95118.09;;;5.64;95.96
20860;BME280;10590;48.154;11.514;2022-11-20T13:20:33;95111.53;;;5.48;95.50
20860;BME280;10590;48.154;11.514;2022-11-20T13:25:38;95112.38;;;5.57;96.52
20860;BME280;10590;48.154;11.514;2022-11-20T13:30:49;95099.50;;;5.59;96.15
20860;BME280;10590;48.154;11.514;2022-11-20T13:35:56;95096.03;;;5.58;97.88
20860;BME280;10590;48.154;11.514;2022-11-20T13:41:00;95095.19;;;5.72;98.19
20860;BME280;10590;48.154;11.514;2022-11-20T13:46:23;95092.16;;;5.87;97.24
20860;BME280;10590;48.154;11.514;2022-11-20T13:51:32;95088.19;;;5.84;98.01
20860;BME280;10590;48.154;11.514;2022-11-20T13:56:49;95089.75;;;5.85;95.65
20860;BME280;10590;48.154;11.514;2022-11-20T14:01:55;95087.53;;;5.79;96.27
20860;BME280;10590;48.154;11.514;2022-11-20T14:06:58;95082.38;;;5.82;94.35
20860;BME280;10590;48.154;11.514;2022-11-20T14:12:02;95083.44;;;6.04;93.23
20860;BME280;10590;48.154;11.514;2022-11-20T14:17:06;95092.00;;;6.14;92.98
20860;BME280;10590;48.154;11.514;2022-11-20T14:22:14;95088.25;;;5.93;92.45
20860;BME280;10590;48.154;11.514;2022-11-20T14:27:20;95086.91;;;6.04;91.99
20860;BME280;10590;48.154;11.514;2022-11-20T14:32:25;95097.88;;;5.94;92.63
20860;BME280;10590;48.154;11.514;2022-11-20T14:37:33;95092.94;;;5.87;91.87
20860;BME280;10590;48.154;11.514;2022-11-20T14:42:43;95086.19;;;5.90;92.58
20860;BME280;10590;48.154;11.514;2022-11-20T14:47:48;95089.72;;;5.77;91.96
20860;BME280;10590;48.154;11.514;2022-11-20T14:52:53;95089.53;;;5.73;89.42
20860;BME280;10590;48.154;11.514;2022-11-20T14:57:57;95084.63;;;5.66;89.42
20860;BME280;10590;48.154;11.514;2022-11-20T15:03:00;95083.88;;;5.52;89.61
20860;BME280;10590;48.154;11.514;2022-11-20T15:08:07;95089.09;;;5.57;90.00
20860;BME280;10590;48.154;11.514;2022-11-20T15:13:13;95085.34;;;5.58;89.97
20860;BME280;10590;48.154;11.514;2022-11-20T15:18:20;95095.22;;;5.58;90.39
20860;BME280;10590;48.154;11.514;2022-11-20T15:23:22;95093.41;;;5.45;91.13
20860;BME280;10590;48.154;11.514;2022-11-20T15:28:29;95088.75;;;5.50;92.00
20860;BME280;10590;48.154;11.514;2022-11-20T15:33:32;95094.50;;;5.44;92.46
20860;BME280;10590;48.154;11.514;2022-11-20T15:38:34;95086.19;;;5.45;92.37
20860;BME280;10590;48.154;11.514;2022-11-20T15:43:37;95089.13;;;5.21;94.08
20860;BME280;10590;48.154;11.514;2022-11-20T15:48:41;95078.19;;;5.09;95.73
20860;BME280;10590;48.154;11.514;2022-11-20T15:53:43;95076.41;;;5.04;96.50
20860;BME280;10590;48.154;11.514;2022-11-20T15:58:49;95076.53;;;4.99;96.82
20860;BME280;10590;48.154;11.514;2022-11-20T16:03:51;95080.59;;;4.97;97.67
20860;BME280;10590;48.154;11.514;2022-11-20T16:08:53;95068.63;;;4.94;98.04
20860;BME280;10590;48.154;11.514;2022-11-20T16:13:56;95065.69;;;4.82;99.46
20860;BME280;10590;48.154;11.514;2022-11-20T16:19:15;95066.41;;;4.60;100.00
20860;BME280;10590;48.154;11.514;2022-11-20T16:24:17;95056.13;;;4.53;100.00
20860;BME280;10590;48.154;11.514;2022-11-20T16:29:21;95047.94;;;4.50;100.00
20860;BME280;10590;48.154;11.514;2022-11-20T16:34:23;95044.69;;;4.53;100.00
20860;BME280;10590;48.154;11.514;2022-11-20T16:39:24;95041.53;;;4.37;100.00
20860;BME280;10590;48.154;11.514;2022-11-20T16:44:27;95048.22;;;4.34;100.00
20860;BME280;10590;48.154;11.514;2022-11-20T16:49:29;95041.91;;;4.30;100.00
20860;BME280;10590;48.154;11.514;2022-11-20T16:54:32;95040.22;;;4.34;100.00
20860;BME280;10590;48.154;11.514;2022-11-20T16:59:35;95038.75;;;4.14;100.00
20860;BME280;10590;48.154;11.514;2022-11-20T17:04:37;95028.09;;;4.14;100.00
20860;BME280;10590;48.154;11.514;2022-11-20T17:09:39;95031.72;;;4.18;100.00
20860;BME280;10590;48.154;11.514;2022-11-20T17:14:42;95031.91;;;3.94;100.00
20860;BME280;10590;48.154;11.514;2022-11-20T17:19:44;95025.19;;;3.69;100.00
20860;BME280;10590;48.154;11.514;2022-11-20T17:24:46;95026.84;;;3.79;100.00
20860;BME280;10590;48.154;11.514;2022-11-20T17:29:49;95024.66;;;3.67;100.00
20860;BME280;10590;48.154;11.514;2022-11-20T17:34:50;95027.50;;;3.25;100.00
20860;BME280;10590;48.154;11.514;2022-11-20T17:39:52;95027.09;;;3.50;100.00
20860;BME280;10590;48.154;11.514;2022-11-20T17:44:55;95016.91;;;3.38;100.00
20860;BME280;10590;48.154;11.514;2022-11-20T17:50:02;95017.03;;;3.47;100.00
20860;BME280;10590;48.154;11.514;2022-11-20T17:55:04;95015.44;;;3.46;100.00
20860;BME280;10590;48.154;11.514;2022-11-20T18:00:09;95009.59;;;3.30;100.00
20860;BME280;10590;48.154;11.514;2022-11-20T18:05:12;95009.63;;;3.44;100.00
20860;BME280;10590;48.154;11.514;2022-11-20T18:10:14;95001.41;;;3.40;100.00
20860;BME280;10590;48.154;11.514;2022-11-20T18:15:17;94998.75;;;3.40;100.00
20860;BME280;10590;48.154;11.514;2022-11-20T18:20:19;95000.31;;;3.41;100.00
20860;BME280;10590;48.154;11.514;2022-11-20T18:25:21;95003.13;;;3.50;100.00
20860;BME280;10590;48.154;11.514;2022-11-20T18:30:24;94990.50;;;3.56;100.00
20860;BME280;10590;48.154;11.514;2022-11-20T18:35:26;94980.16;;;3.54;100.00
20860;BME280;10590;48.154;11.514;2022-11-20T18:40:27;94993.84;;;3.61;100.00
20860;BME280;10590;48.154;11.514;2022-11-20T18:45:31;94977.88;;;3.61;100.00
20860;BME280;10590;48.154;11.514;2022-11-20T18:50:33;94970.75;;;3.57;100.00
20860;BME280;10590;48.154;11.514;2022-11-20T18:55:35;94961.56;;;3.49;100.00
20860;BME280;10590;48.154;11.514;2022-11-20T19:00:38;94959.09;;;3.39;100.00
20860;BME280;10590;48.154;11.514;2022-11-20T19:05:39;94957.91;;;3.45;100.00
20860;BME280;10590;48.154;11.514;2022-11-20T19:10:41;94942.00;;;2.93;100.00
20860;BME280;10590;48.154;11.514;2022-11-20T19:15:45;94943.78;;;2.98;100.00
20860;BME280;10590;48.154;11.514;2022-11-20T19:20:46;94939.53;;;3.30;100.00
20860;BME280;10590;48.154;11.514;2022-11-20T19:25:50;94934.56;;;3.42;100.00
20860;BME280;10590;48.154;11.514;2022-11-20T19:31:01;94931.78;;;3.47;100.00
20860;BME280;10590;48.154;11.514;2022-11-20T19:36:10;94929.31;;;3.37;100.00
20860;BME280;10590;48.154;11.514;2022-11-20T19:41:14;94931.69;;;3.52;100.00
20860;BME280;10590;48.154;11.514;2022-11-20T19:46:17;94929.88;;;3.34;100.00
20860;BME280;10590;48.154;11.514;2022-11-20T19:51:22;94932.94;;;3.41;100.00
20860;BME280;10590;48.154;11.514;2022-11-20T19:56:25;94919.59;;;3.13;100.00
20860;BME280;10590;48.154;11.514;2022-11-20T20:01:30;94909.19;;;3.31;100.00
20860;BME280;10590;48.154;11.514;2022-11-20T20:06:34;94903.75;;;3.36;100.00
20860;BME280;10590;48.154;11.514;2022-11-20T20:11:38;94904.13;;;3.29;100.00
20860;BME280;10590;48.154;11.514;2022-11-20T20:16:42;94896.44;;;3.28;100.00
20860;BME280;10590;48.154;11.514;2022-11-20T20:21:44;94889.56;;;3.40;100.00
20860;BME280;10590;48.154;11.514;2022-11-20T20:26:47;94892.81;;;3.51;100.00
20860;BME280;10590;48.154;11.514;2022-11-20T20:31:50;94882.34;;;3.68;100.00
20860;BME280;10590;48.154;11.514;2022-11-20T20:36:51;94880.97;;;3.85;100.00
20860;BME280;10590;48.154;11.514;2022-11-20T20:41:53;94881.16;;;3.88;99.46
20860;BME280;10590;48.154;11.514;2022-11-20T20:46:56;94881.88;;;3.94;98.62
20860;BME280;10590;48.154;11.514;2022-11-20T20:51:58;94877.78;;;3.97;97.28
20860;BME280;10590;48.154;11.514;2022-11-20T20:57:01;94875.25;;;3.91;96.41
20860;BME280;10590;48.154;11.514;2022-11-20T21:02:04;94876.91;;;4.01;95.94
20860;BME280;10590;48.154;11.514;2022-11-20T21:07:06;94869.13;;;4.41;91.78
20860;BME280;10590;48.154;11.514;2022-11-20T21:12:08;94872.75;;;4.45;89.10
20860;BME280;10590;48.154;11.514;2022-11-20T21:17:12;94855.84;;;4.50;87.53
20860;BME280;10590;48.154;11.514;2022-11-20T21:22:14;94853.91;;;4.64;85.70
20860;BME280;10590;48.154;11.514;2022-11-20T21:27:16;94853.72;;;4.60;85.91
20860;BME280;10590;48.154;11.514;2022-11-20T21:32:19;94869.66;;;4.52;86.04
20860;BME280;10590;48.154;11.514;2022-11-20T21:37:21;94890.66;;;4.67;84.84
20860;BME280;10590;48.154;11.514;2022-11-20T21:42:24;94899.88;;;4.61;86.92
20860;BME280;10590;48.154;11.514;2022-11-20T21:47:27;94913.38;;;4.42;92.04
20860;BME280;10590;48.154;11.514;2022-11-20T21:52:28;94913.53;;;4.09;100.00
20860;BME280;10590;48.154;11.514;2022-11-20T21:57:32;94906.34;;;3.82;100.00
20860;BME280;10590;48.154;11.514;2022-11-20T22:02:37;94905.06;;;3.66;100.00
20860;BME280;10590;48.154;11.514;2022-11-20T22:07:42;94895.59;;;3.60;100.00
20860;BME280;10590;48.154;11.514;2022-11-20T22:12:44;94898.94;;;3.65;100.00
20860;BME280;10590;48.154;11.514;2022-11-20T22:17:47;94890.75;;;3.48;100.00
20860;BME280;10590;48.154;11.514;2022-11-20T22:23:06;94888.66;;;3.45;100.00
20860;BME280;10590;48.154;11.514;2022-11-20T22:28:08;94887.09;;;3.44;100.00
20860;BME280;10590;48.154;11.514;2022-11-20T22:33:12;94891.31;;;3.45;100.00
20860;BME280;10590;48.154;11.514;2022-11-20T22:38:13;94890.53;;;3.31;100.00
20860;BME280;10590;48.154;11.514;2022-11-20T22:43:15;94899.91;;;3.28;100.00
20860;BME280;10590;48.154;11.514;2022-11-20T22:48:18;94899.38;;;3.12;100.00
20860;BME280;10590;48.154;11.514;2022-11-20T22:53:20;94900.06;;;3.04;100.00
20860;BME280;10590;48.154;11.514;2022-11-20T22:58:22;94900.81;;;2.91;100.00
20860;BME280;10590;48.154;11.514;2022-11-20T23:03:25;94889.56;;;2.94;100.00
20860;BME280;10590;48.154;11.514;2022-11-20T23:08:27;94891.75;;;2.92;100.00
20860;BME280;10590;48.154;11.514;2022-11-20T23:13:29;94888.56;;;2.90;100.00
20860;BME280;10590;48.154;11.514;2022-11-20T23:18:33;94886.22;;;2.88;100.00
20860;BME280;10590;48.154;11.514;2022-11-20T23:23:35;94885.63;;;2.91;100.00
20860;BME280;10590;48.154;11.514;2022-11-20T23:28:36;94884.50;;;2.79;100.00
20860;BME280;10590;48.154;11.514;2022-11-20T23:33:43;94876.25;;;2.80;100.00
20860;BME280;10590;48.154;11.514;2022-11-20T23:38:45;94888.16;;;2.83;100.00
20860;BME280;10590;48.154;11.514;2022-11-20T23:43:47;94884.13;;;2.85;100.00
20860;BME280;10590;48.154;11.514;2022-11-20T23:48:50;94889.75;;;2.84;100.00
20860;BME280;10590;48.154;11.514;2022-11-20T23:53:52;94891.13;;;2.81;100.00
20860;BME280;10590;48.154;11.514;2022-11-20T23:58:54;94886.56;;;2.82;100.00
